createdAt,value
2023-03-05T00:01:40.718Z,82.16
2023-03-05T00:04:07.757Z,82.18
2023-03-05T00:06:34.294Z,82.46
2023-03-05T00:09:00.660Z,82.74
2023-03-05T00:11:27.432Z,82.71
2023-03-05T00:13:53.982Z,82.65
2023-03-05T00:16:20.590Z,82.93
2023-03-05T00:18:47.194Z,82.56
2023-03-05T00:21:21.089Z,82.56
2023-03-05T00:23:47.625Z,82.36
2023-03-05T00:26:14.002Z,82.30
2023-03-05T00:28:40.720Z,82.66
2023-03-05T00:31:07.219Z,82.41
2023-03-05T00:33:33.842Z,82.52
2023-03-05T00:36:00.332Z,82.47
2023-03-05T00:38:26.830Z,82.66
2023-03-05T00:40:53.325Z,82.47
2023-03-05T00:43:19.877Z,82.43
2023-03-05T00:45:46.287Z,82.57
2023-03-05T00:48:12.785Z,82.56
2023-03-05T00:50:39.186Z,82.51
2023-03-05T00:53:05.616Z,82.26
2023-03-05T00:55:32.089Z,82.52
2023-03-05T00:57:58.477Z,82.61
2023-03-05T01:00:24.963Z,82.87
2023-03-05T01:02:51.435Z,82.70
2023-03-05T01:05:17.925Z,82.60
2023-03-05T01:07:44.407Z,83.41
2023-03-05T01:10:11.204Z,83.93
2023-03-05T01:12:37.853Z,83.71
2023-03-05T01:15:04.569Z,84.05
2023-03-05T01:17:31.086Z,84.23
2023-03-05T01:19:57.953Z,84.15
2023-03-05T01:22:24.470Z,84.76
2023-03-05T01:24:50.870Z,84.97
2023-03-05T01:27:17.281Z,84.85
2023-03-05T01:29:43.753Z,84.68
2023-03-05T01:32:10.182Z,84.90
2023-03-05T01:34:37.027Z,84.97
2023-03-05T01:37:03.443Z,84.94
2023-03-05T01:39:30.082Z,84.20
2023-03-05T01:41:56.515Z,84.30
2023-03-05T01:44:24.084Z,85.16
2023-03-05T01:46:50.522Z,85.91
2023-03-05T01:49:17.076Z,84.78
2023-03-05T01:51:51.583Z,84.90
2023-03-05T01:54:19.215Z,84.63
2023-03-05T01:56:46.291Z,84.79
2023-03-05T01:59:12.740Z,84.40
2023-03-05T02:01:40.266Z,84.13
2023-03-05T02:04:07.643Z,83.40
2023-03-05T02:06:34.092Z,84.13
2023-03-05T02:09:00.645Z,83.90
2023-03-05T02:11:27.448Z,84.25
2023-03-05T02:13:53.816Z,84.24
2023-03-05T02:16:20.249Z,84.25
2023-03-05T02:18:46.736Z,84.57
2023-03-05T02:21:13.214Z,84.23
2023-03-05T02:23:39.755Z,84.54
2023-03-05T02:26:09.194Z,84.40
2023-03-05T02:28:38.262Z,84.57
2023-03-05T02:31:13.227Z,83.92
2023-03-05T02:33:39.683Z,84.01
2023-03-05T02:36:06.484Z,84.08
2023-03-05T02:38:32.992Z,84.22
2023-03-05T02:40:59.470Z,84.18
2023-03-05T02:43:25.935Z,84.47
2023-03-05T02:45:52.441Z,84.41
2023-03-05T02:48:18.981Z,84.37
2023-03-05T02:50:45.446Z,84.65
2023-03-05T02:53:11.821Z,84.50
2023-03-05T02:55:38.208Z,84.30
2023-03-05T02:58:04.705Z,84.35
2023-03-05T03:00:31.249Z,84.41
2023-03-05T03:02:57.765Z,84.72
2023-03-05T03:05:24.285Z,84.94
2023-03-05T03:07:50.818Z,84.68
2023-03-05T03:10:17.281Z,84.94
2023-03-05T03:12:43.840Z,84.88
2023-03-05T03:15:10.804Z,85.09
2023-03-05T03:17:37.264Z,85.33
2023-03-05T03:20:04.188Z,85.24
2023-03-05T03:22:30.639Z,85.21
2023-03-05T03:24:57.186Z,85.34
2023-03-05T03:27:23.609Z,85.95
2023-03-05T03:29:50.117Z,86.06
2023-03-05T03:32:16.616Z,86.64
2023-03-05T03:34:43.167Z,86.49
2023-03-05T03:37:09.652Z,86.74
2023-03-05T03:39:36.064Z,86.40
2023-03-05T03:42:02.525Z,86.30
2023-03-05T03:44:28.959Z,86.18
2023-03-05T03:46:55.370Z,86.24
2023-03-05T03:49:22.589Z,86.22
2023-03-05T03:51:49.333Z,86.26
2023-03-05T03:54:16.107Z,86.08
2023-03-05T03:56:42.558Z,86.24
2023-03-05T03:59:09.173Z,86.52
2023-03-05T04:01:35.580Z,86.24
2023-03-05T04:04:02.010Z,86.37
2023-03-05T04:06:28.531Z,86.43
2023-03-05T04:08:55.048Z,86.14
2023-03-05T04:11:21.585Z,86.20
2023-03-05T04:13:48.002Z,86.79
2023-03-05T04:16:14.878Z,86.95
2023-03-05T04:18:41.437Z,86.68
2023-03-05T04:21:07.873Z,86.65
2023-03-05T04:23:34.255Z,87.03
2023-03-05T04:26:00.659Z,87.61
2023-03-05T04:28:27.024Z,87.48
2023-03-05T04:30:53.476Z,87.39
2023-03-05T04:33:20.034Z,87.74
2023-03-05T04:35:46.519Z,87.29
2023-03-05T04:38:12.959Z,87.55
2023-03-05T04:40:39.464Z,87.50
2023-03-05T04:43:05.924Z,87.09
2023-03-05T04:45:32.365Z,87.74
2023-03-05T04:47:58.796Z,87.99
2023-03-05T04:50:25.264Z,87.71
2023-03-05T04:52:51.988Z,87.49
2023-03-05T04:55:18.457Z,87.80
2023-03-05T04:57:44.869Z,88.02
2023-03-05T05:00:13.225Z,87.93
2023-03-05T05:02:43.376Z,87.95
2023-03-05T05:05:10.770Z,87.41
2023-03-05T05:07:37.817Z,87.49
2023-03-05T05:10:04.451Z,87.43
2023-03-05T05:12:30.920Z,87.95
2023-03-05T05:15:00.410Z,88.00
2023-03-05T05:17:26.903Z,88.14
2023-03-05T05:19:53.309Z,88.01
2023-03-05T05:22:19.710Z,88.59
2023-03-05T05:25:20.130Z,87.83
2023-03-05T05:27:46.571Z,87.70
2023-03-05T05:30:13.086Z,87.69
2023-03-05T05:32:39.641Z,87.88
2023-03-05T05:35:06.427Z,88.10
2023-03-05T05:37:32.934Z,88.19
2023-03-05T05:39:59.457Z,87.60
2023-03-05T05:42:25.804Z,88.09
2023-03-05T05:44:52.724Z,87.58
2023-03-05T05:47:19.387Z,88.03
2023-03-05T05:49:45.861Z,87.90
2023-03-05T05:52:12.457Z,88.03
2023-03-05T05:54:38.997Z,88.23
2023-03-05T05:57:05.671Z,87.62
2023-03-05T05:59:32.152Z,87.82
2023-03-05T06:01:58.687Z,88.31
2023-03-05T06:04:25.049Z,88.87
2023-03-05T06:06:51.552Z,88.87
2023-03-05T06:09:17.962Z,88.65
2023-03-05T06:11:44.369Z,88.12
2023-03-05T06:14:11.450Z,88.19
2023-03-05T06:16:37.966Z,87.98
2023-03-05T06:19:04.765Z,87.82
2023-03-05T06:21:31.296Z,88.24
2023-03-05T06:23:57.755Z,89.20
2023-03-05T06:26:25.684Z,88.07
2023-03-05T06:28:52.292Z,87.94
2023-03-05T06:31:19.709Z,88.01
2023-03-05T06:33:46.248Z,88.10
2023-03-05T06:36:13.317Z,87.97
2023-03-05T06:38:39.765Z,88.38
2023-03-05T06:41:07.365Z,88.08
2023-03-05T06:43:33.767Z,88.16
2023-03-05T06:46:11.667Z,88.07
2023-03-05T06:48:38.210Z,88.14
2023-03-05T06:51:05.280Z,88.10
2023-03-05T06:53:31.706Z,88.03
2023-03-05T06:56:00.486Z,87.80
2023-03-05T06:58:26.962Z,87.83
2023-03-05T07:00:53.451Z,87.54
2023-03-05T07:03:19.951Z,87.65
2023-03-05T07:05:46.403Z,87.56
2023-03-05T07:08:12.870Z,88.03
2023-03-05T07:10:39.643Z,87.36
2023-03-05T07:13:06.270Z,87.25
2023-03-05T07:15:32.744Z,86.92
2023-03-05T07:17:59.313Z,86.65
2023-03-05T07:20:25.694Z,87.03
2023-03-05T07:22:52.571Z,87.09
2023-03-05T07:25:19.017Z,86.96
2023-03-05T07:27:45.712Z,86.82
2023-03-05T07:30:12.449Z,86.54
2023-03-05T07:32:38.963Z,86.76
2023-03-05T07:35:06.527Z,87.16
2023-03-05T07:37:33.117Z,86.77
2023-03-05T07:39:59.752Z,86.79
2023-03-05T07:42:26.161Z,87.12
2023-03-05T07:44:52.610Z,87.11
2023-03-05T07:47:19.012Z,86.34
2023-03-05T07:49:45.473Z,86.83
2023-03-05T07:52:11.868Z,86.64
2023-03-05T07:54:38.473Z,86.47
2023-03-05T07:57:05.285Z,87.02
2023-03-05T07:59:31.824Z,86.77
2023-03-05T08:01:58.289Z,86.33
2023-03-05T08:04:24.656Z,86.48
2023-03-05T08:06:51.171Z,86.12
2023-03-05T08:09:17.724Z,86.74
2023-03-05T08:11:44.463Z,86.85
2023-03-05T08:14:11.470Z,85.90
2023-03-05T08:16:38.551Z,85.81
2023-03-05T08:19:05.445Z,85.88
2023-03-05T08:21:32.644Z,85.67
2023-03-05T08:23:59.455Z,85.51
2023-03-05T08:26:26.846Z,85.30
2023-03-05T08:28:53.337Z,85.59
2023-03-05T08:31:20.456Z,85.51
2023-03-05T08:33:47.374Z,85.76
2023-03-05T08:36:13.870Z,86.02
2023-03-05T08:38:40.341Z,85.49
2023-03-05T08:41:06.761Z,85.90
2023-03-05T08:43:33.254Z,85.65
2023-03-05T08:46:00.186Z,85.30
2023-03-05T08:48:26.863Z,85.44
2023-03-05T08:50:53.352Z,85.55
2023-03-05T08:53:19.776Z,85.00
2023-03-05T08:55:53.476Z,84.71
2023-03-05T08:58:19.905Z,84.85
2023-03-05T09:00:46.251Z,84.68
2023-03-05T09:03:12.745Z,84.47
2023-03-05T09:05:39.396Z,84.54
2023-03-05T09:08:06.027Z,84.51
2023-03-05T09:10:32.561Z,84.78
2023-03-05T09:12:59.424Z,84.55
2023-03-05T09:15:25.818Z,84.39
2023-03-05T09:17:52.233Z,84.39
2023-03-05T09:20:18.831Z,85.13
2023-03-05T09:22:45.254Z,84.78
2023-03-05T09:25:11.776Z,84.59
2023-03-05T09:27:38.351Z,84.40
2023-03-05T09:30:05.078Z,84.38
2023-03-05T09:32:31.551Z,84.71
2023-03-05T09:34:59.125Z,84.38
2023-03-05T09:37:25.491Z,84.60
2023-03-05T09:39:52.002Z,84.86
2023-03-05T09:42:38.607Z,84.42
2023-03-05T09:45:24.188Z,84.50
2023-03-05T09:47:53.690Z,84.52
2023-03-05T09:50:28.911Z,84.53
2023-03-05T09:52:55.695Z,84.52
2023-03-05T09:55:25.788Z,83.99
2023-03-05T09:57:52.497Z,83.97
2023-03-05T10:00:29.831Z,83.78
2023-03-05T10:02:57.175Z,84.00
2023-03-05T10:05:42.562Z,83.77
2023-03-05T10:08:08.993Z,83.78
2023-03-05T10:10:46.059Z,83.23
2023-03-05T10:13:32.710Z,83.48
2023-03-05T10:16:18.107Z,82.79
2023-03-05T10:18:46.554Z,82.44
2023-03-05T10:21:18.394Z,82.59
2023-03-05T10:24:20.456Z,81.85
2023-03-05T10:26:47.167Z,82.31
2023-03-05T10:29:42.814Z,81.77
2023-03-05T10:32:18.388Z,82.20
2023-03-05T10:34:57.197Z,81.27
2023-03-05T10:37:56.312Z,81.39
2023-03-05T10:40:43.081Z,81.35
2023-03-05T10:43:31.230Z,81.95
2023-03-05T10:45:57.810Z,81.70
2023-03-05T10:48:24.263Z,81.87
2023-03-05T10:50:52.151Z,81.76
2023-03-05T10:53:21.718Z,81.04
2023-03-05T10:55:48.235Z,81.31
2023-03-05T10:58:15.727Z,81.42
2023-03-05T11:00:57.747Z,81.75
2023-03-05T11:03:24.209Z,81.31
2023-03-05T11:05:51.492Z,81.22
2023-03-05T11:08:26.938Z,79.58
2023-03-05T11:11:13.081Z,79.53
2023-03-05T11:13:51.694Z,79.09
2023-03-05T11:16:27.893Z,79.70
2023-03-05T11:19:14.150Z,79.53
2023-03-05T11:21:40.821Z,78.60
2023-03-05T11:24:11.747Z,78.82
2023-03-05T11:26:38.197Z,78.25
2023-03-05T11:29:11.106Z,78.10
2023-03-05T11:31:37.538Z,77.46
2023-03-05T11:34:07.727Z,77.87
2023-03-05T11:36:38.077Z,77.79
2023-03-05T11:39:08.090Z,77.26
2023-03-05T11:41:36.212Z,76.94
2023-03-05T11:44:03.201Z,76.77
2023-03-05T11:46:30.106Z,77.05
2023-03-05T11:48:56.676Z,77.36
2023-03-05T11:51:26.373Z,77.18
2023-03-05T11:53:55.554Z,76.87
2023-03-05T11:56:25.893Z,76.86
2023-03-05T11:58:54.682Z,77.15
2023-03-05T12:01:24.404Z,77.39
2023-03-05T12:03:51.091Z,78.22
2023-03-05T12:06:19.178Z,78.25
2023-03-05T12:08:47.080Z,77.94
2023-03-05T12:11:39.725Z,78.71
2023-03-05T12:14:09.357Z,79.03
2023-03-05T12:16:59.207Z,79.35
2023-03-05T12:19:35.112Z,77.91
2023-03-05T12:22:01.605Z,78.72
2023-03-05T12:24:28.581Z,78.84
2023-03-05T12:27:00.936Z,78.23
2023-03-05T12:29:31.940Z,78.49
2023-03-05T12:31:58.927Z,78.41
2023-03-05T12:34:51.425Z,78.28
2023-03-05T12:37:20.836Z,78.91
2023-03-05T12:40:07.534Z,78.25
2023-03-05T12:42:33.870Z,77.67
2023-03-05T12:45:09.442Z,78.14
2023-03-05T12:47:40.519Z,77.47
2023-03-05T12:50:30.447Z,77.64
2023-03-05T12:53:00.384Z,77.59
2023-03-05T12:55:50.156Z,77.24
2023-03-05T12:58:36.326Z,78.12
2023-03-05T13:01:04.388Z,77.07
2023-03-05T13:03:32.987Z,77.48
2023-03-05T13:05:59.506Z,77.17
2023-03-05T13:08:26.702Z,77.67
2023-03-05T13:10:53.975Z,77.38
2023-03-05T13:13:21.304Z,77.54
2023-03-05T13:15:48.309Z,77.49
2023-03-05T13:18:21.638Z,77.98
2023-03-05T13:20:48.334Z,77.57
2023-03-05T13:23:14.710Z,78.12
2023-03-05T13:25:41.365Z,78.62
2023-03-05T13:28:10.798Z,78.10
2023-03-05T13:30:37.223Z,78.32
2023-03-05T13:33:04.162Z,78.07
2023-03-05T13:35:31.222Z,77.78
2023-03-05T13:37:57.903Z,77.92
2023-03-05T13:40:25.253Z,78.60
2023-03-05T13:42:51.788Z,78.12
2023-03-05T13:45:24.481Z,78.43
2023-03-05T13:47:51.764Z,77.09
2023-03-05T13:50:25.753Z,76.70
2023-03-05T13:52:52.271Z,75.99
2023-03-05T13:55:19.291Z,75.66
2023-03-05T13:57:46.516Z,74.97
2023-03-05T14:00:31.889Z,74.31
2023-03-05T14:03:07.853Z,74.94
2023-03-05T14:05:34.382Z,75.17
2023-03-05T14:08:00.918Z,74.84
2023-03-05T14:10:31.672Z,74.67
2023-03-05T14:12:58.558Z,74.75
2023-03-05T14:15:29.149Z,74.53
2023-03-05T14:18:11.002Z,74.43
2023-03-05T14:20:37.823Z,74.94
2023-03-05T14:23:26.720Z,74.69
2023-03-05T14:26:14.751Z,74.53
2023-03-05T14:28:41.230Z,73.74
2023-03-05T14:31:10.589Z,73.40
2023-03-05T14:33:37.014Z,73.59
2023-03-05T14:36:03.545Z,73.72
2023-03-05T14:38:30.402Z,73.61
2023-03-05T14:40:56.864Z,73.27
2023-03-05T14:43:23.397Z,72.77
2023-03-05T14:45:50.017Z,72.39
2023-03-05T14:48:16.958Z,72.13
2023-03-05T14:50:47.780Z,72.18
2023-03-05T14:53:21.698Z,72.54
2023-03-05T14:55:48.939Z,72.14
2023-03-05T14:58:16.116Z,72.51
2023-03-05T15:00:42.613Z,72.66
2023-03-05T15:03:12.788Z,72.26
2023-03-05T15:05:39.276Z,71.78
2023-03-05T15:08:05.787Z,71.52
2023-03-05T15:10:32.281Z,72.17
2023-03-05T15:12:58.698Z,71.85
2023-03-05T15:15:25.129Z,72.23
2023-03-05T15:17:51.486Z,71.90
2023-03-05T15:20:19.636Z,72.20
2023-03-05T15:22:46.708Z,72.05
2023-03-05T15:25:13.173Z,72.32
2023-03-05T15:27:39.685Z,72.11
2023-03-05T15:30:06.799Z,72.57
2023-03-05T15:32:33.331Z,72.41
2023-03-05T15:34:59.812Z,72.88
2023-03-05T15:37:26.354Z,73.57
2023-03-05T15:39:53.765Z,72.36
2023-03-05T15:42:20.217Z,72.61
2023-03-05T15:44:46.634Z,72.60
2023-03-05T15:47:13.099Z,73.05
2023-03-05T15:49:39.488Z,73.40
2023-03-05T15:52:06.009Z,73.56
2023-03-05T15:54:32.469Z,73.53
2023-03-05T15:56:58.825Z,73.17
2023-03-05T15:59:25.221Z,73.53
2023-03-05T16:01:51.721Z,74.03
2023-03-05T16:04:18.293Z,73.63
2023-03-05T16:06:45.423Z,74.09
2023-03-05T16:09:11.887Z,72.98
2023-03-05T16:11:38.322Z,73.55
2023-03-05T16:14:05.709Z,73.78
2023-03-05T16:16:33.113Z,73.23
2023-03-05T16:18:59.977Z,73.65
2023-03-05T16:21:26.482Z,74.40
2023-03-05T16:23:52.853Z,74.06
2023-03-05T16:26:19.363Z,73.42
2023-03-05T16:28:45.781Z,74.28
2023-03-05T16:31:12.368Z,74.16
2023-03-05T16:33:38.976Z,74.15
2023-03-05T16:36:11.498Z,74.53
2023-03-05T16:38:38.041Z,74.20
2023-03-05T16:41:08.823Z,73.71
2023-03-05T16:43:35.432Z,73.76
2023-03-05T16:46:01.853Z,75.08
2023-03-05T16:48:29.291Z,74.94
2023-03-05T16:50:55.797Z,74.60
2023-03-05T16:53:22.196Z,74.28
2023-03-05T16:55:48.660Z,73.81
2023-03-05T16:58:15.016Z,74.16
2023-03-05T17:00:41.518Z,73.92
2023-03-05T17:03:08.108Z,73.75
2023-03-05T17:05:37.714Z,73.67
2023-03-05T17:08:04.355Z,72.77
2023-03-05T17:10:31.070Z,74.56
2023-03-05T17:12:57.602Z,74.19
2023-03-05T17:15:24.234Z,75.06
2023-03-05T17:17:50.651Z,76.12
2023-03-05T17:20:17.446Z,76.26
2023-03-05T17:22:43.974Z,76.31
2023-03-05T17:25:11.509Z,75.83
2023-03-05T17:27:38.031Z,75.26
2023-03-05T17:30:05.022Z,74.83
2023-03-05T17:32:31.682Z,74.18
2023-03-05T17:34:58.131Z,75.32
2023-03-05T17:37:24.562Z,76.93
2023-03-05T17:39:51.168Z,76.16
2023-03-05T17:42:17.636Z,76.46
2023-03-05T17:44:44.102Z,75.14
2023-03-05T17:47:10.623Z,74.83
2023-03-05T17:49:37.001Z,74.86
2023-03-05T17:52:03.493Z,74.39
2023-03-05T17:54:29.973Z,75.08
2023-03-05T17:56:56.519Z,75.21
2023-03-05T17:59:23.134Z,76.07
2023-03-05T18:01:49.548Z,76.25
2023-03-05T18:04:16.053Z,75.85
2023-03-05T18:06:43.437Z,75.69
2023-03-05T18:09:09.935Z,76.08
2023-03-05T18:11:36.576Z,75.07
2023-03-05T18:14:03.000Z,75.20
2023-03-05T18:16:29.497Z,75.39
2023-03-05T18:18:56.076Z,75.38
2023-03-05T18:21:22.857Z,75.00
2023-03-05T18:23:49.363Z,74.97
2023-03-05T18:26:15.799Z,74.51
2023-03-05T18:28:42.254Z,74.99
2023-03-05T18:31:08.771Z,75.23
2023-03-05T18:33:35.189Z,77.01
2023-03-05T18:36:01.612Z,77.23
2023-03-05T18:38:28.403Z,77.97
2023-03-05T18:40:55.351Z,77.92
2023-03-05T18:43:22.127Z,78.73
2023-03-05T18:45:52.476Z,79.24
2023-03-05T18:48:19.092Z,78.70
2023-03-05T18:50:45.682Z,78.54
2023-03-05T18:53:15.231Z,78.94
2023-03-05T18:55:42.671Z,78.40
2023-03-05T18:58:09.511Z,77.75
2023-03-05T19:00:35.913Z,77.70
2023-03-05T19:03:02.347Z,78.43
2023-03-05T19:05:29.354Z,77.93
2023-03-05T19:07:55.894Z,79.67
2023-03-05T19:10:23.327Z,79.85
2023-03-05T19:12:49.853Z,79.80
2023-03-05T19:15:17.315Z,78.89
2023-03-05T19:17:43.725Z,79.09
2023-03-05T19:20:13.292Z,79.04
2023-03-05T19:22:39.725Z,78.64
2023-03-05T19:25:07.649Z,79.05
2023-03-05T19:27:34.273Z,79.84
2023-03-05T19:30:00.990Z,80.74
2023-03-05T19:32:27.617Z,80.85
2023-03-05T19:34:57.501Z,81.04
2023-03-05T19:37:24.172Z,81.24
2023-03-05T19:39:50.686Z,81.26
2023-03-05T19:42:18.193Z,82.18
2023-03-05T19:44:44.705Z,81.82
2023-03-05T19:47:11.257Z,81.52
2023-03-05T19:49:37.679Z,83.32
2023-03-05T19:52:04.269Z,82.81
2023-03-05T19:54:30.767Z,82.53
2023-03-05T19:56:57.197Z,82.78
2023-03-05T19:59:23.612Z,82.88
2023-03-05T20:01:50.229Z,83.18
2023-03-05T20:04:18.094Z,82.66
2023-03-05T20:06:45.993Z,82.69
2023-03-05T20:09:12.468Z,82.19
2023-03-05T20:11:38.935Z,81.26
2023-03-05T20:14:05.406Z,80.67
2023-03-05T20:16:32.590Z,80.60
2023-03-05T20:18:59.156Z,80.41
2023-03-05T20:21:29.620Z,81.31
2023-03-05T20:23:56.785Z,82.70
2023-03-05T20:26:23.366Z,83.02
2023-03-05T20:28:49.935Z,83.48
2023-03-05T20:31:19.835Z,83.22
2023-03-05T20:33:46.422Z,83.72
2023-03-05T20:36:12.866Z,83.28
2023-03-05T20:38:39.254Z,83.20
2023-03-05T20:41:09.476Z,83.49
2023-03-05T20:43:36.756Z,84.37
2023-03-05T20:46:03.396Z,83.64
2023-03-05T20:48:30.714Z,83.64
2023-03-05T20:50:57.146Z,82.28
2023-03-05T20:53:23.835Z,81.75
2023-03-05T20:55:50.263Z,82.97
2023-03-05T20:58:16.714Z,83.73
2023-03-05T21:00:43.136Z,83.76
2023-03-05T21:03:09.679Z,83.89
2023-03-05T21:05:36.454Z,84.43
2023-03-05T21:08:03.039Z,83.94
2023-03-05T21:10:29.724Z,83.58
2023-03-05T21:12:56.197Z,84.84
2023-03-05T21:15:26.934Z,84.04
2023-03-05T21:17:53.490Z,83.93
2023-03-05T21:20:23.066Z,84.04
2023-03-05T21:22:49.601Z,83.27
2023-03-05T21:25:23.117Z,83.61
2023-03-05T21:28:09.748Z,82.59
2023-03-05T21:30:40.551Z,82.33
2023-03-05T21:33:07.952Z,81.47
2023-03-05T21:35:34.577Z,80.78
2023-03-05T21:38:01.245Z,80.63
2023-03-05T21:40:27.762Z,81.22
2023-03-05T21:42:54.384Z,81.15
2023-03-05T21:45:21.890Z,80.89
2023-03-05T21:47:48.366Z,81.96
2023-03-05T21:50:15.025Z,82.67
2023-03-05T21:52:41.508Z,82.46
2023-03-05T21:55:08.168Z,82.04
2023-03-05T21:57:34.559Z,81.50
2023-03-05T22:00:01.056Z,81.08
2023-03-05T22:02:27.700Z,80.67
2023-03-05T22:04:54.217Z,80.84
2023-03-05T22:07:20.898Z,80.46
2023-03-05T22:09:48.049Z,80.95
2023-03-05T22:12:14.469Z,80.60
2023-03-05T22:14:41.198Z,80.42
2023-03-05T22:17:07.682Z,80.98
2023-03-05T22:19:34.108Z,80.82
2023-03-05T22:22:00.543Z,80.48
2023-03-05T22:24:26.972Z,80.68
2023-03-05T22:26:53.413Z,80.98
2023-03-05T22:29:19.902Z,80.99
2023-03-05T22:31:46.298Z,81.30
2023-03-05T22:34:12.785Z,80.87
2023-03-05T22:36:39.277Z,81.52
2023-03-05T22:39:05.686Z,81.33
2023-03-05T22:41:32.137Z,80.73
2023-03-05T22:43:58.554Z,80.94
2023-03-05T22:46:25.370Z,81.09
2023-03-05T22:48:51.958Z,81.34
2023-03-05T22:51:18.515Z,81.10
2023-03-05T22:53:44.890Z,81.24
2023-03-05T22:56:12.398Z,80.75
2023-03-05T22:58:38.838Z,80.43
2023-03-05T23:01:15.256Z,80.95
2023-03-05T23:03:42.198Z,81.35
2023-03-05T23:06:08.904Z,81.20
2023-03-05T23:08:35.588Z,81.56
2023-03-05T23:11:06.475Z,82.13
2023-03-05T23:13:32.885Z,81.75
2023-03-05T23:15:59.593Z,81.74
2023-03-05T23:18:26.153Z,81.74
2023-03-05T23:20:52.578Z,82.76
2023-03-05T23:23:19.527Z,82.48
2023-03-05T23:25:45.944Z,81.83
2023-03-05T23:28:12.394Z,82.53
2023-03-05T23:30:38.975Z,83.17
2023-03-05T23:33:06.444Z,82.96
2023-03-05T23:35:34.105Z,82.87
2023-03-05T23:38:00.985Z,82.52
2023-03-05T23:40:28.549Z,82.21
2023-03-05T23:42:55.009Z,81.70
2023-03-05T23:45:21.989Z,82.02
2023-03-05T23:47:48.486Z,82.26
2023-03-05T23:50:19.310Z,82.43
2023-03-05T23:52:45.837Z,83.52
2023-03-05T23:55:16.318Z,83.94
2023-03-05T23:57:44.259Z,83.92
